Wakarusa, Indiana
Current Conditions -  °F | °C
As of 12:53 PM on Thursday 30 Oct 2014 (Local Time) from KGSH Reporting Station
Overcast Overcast  
Wind Chill: 45°   Ceiling: 4400
Heat Index: 49°   Visibility: 10mi
Dew Point: 35°   Wind: 10mph
Humidity: 59%   Direction: 260°W
Pressure: 30.13"   Gusts: NA
Location:  41.54°N, 86.02°W
Report Text: KGSH 301653Z AUTO 26009KT 10SM OVC044 09/02 A3013 RMK AO2 SLP205 T00940017
Loading
Personal Weather Stations






























Interactive Weather Map
Tropical Storm Tracking
New forecast layout! Learn more

10-Day Weather Forecast

Advertisements
Track Severe Weather on mobile